ACA784 CYVR-KPDX
Flight info
| Callsign | ACA784 |
|---|---|
| Flight time | 0h 42m |
| Altitude | 29000 |
| Route | SEA DCT BUWZO KRATR3 |
| Aircraft | A320/M-SDE3FGHIRWY/LB1 |
Departure
| Time | 2026-05-08 03:00 |
|---|---|
| Airport | Vancouver International Airport (CYVR) |
Arrival
| Time | 2026-05-08 03:42 |
|---|---|
| Airport | Portland International Airport (KPDX) |
| Time | Latitude | Longitude | Altitude | Speed | Heading |
|---|---|---|---|---|---|
| 2026-05-08 02:28 | 49.19629 | -123.18475 | 29 ft | 0 kts | 200° |
| 2026-05-08 02:29 | 49.19614 | -123.18392 | 29 ft | 0 kts | 185° |
| 2026-05-08 02:47 | 49.19617 | -123.18392 | 25 ft | 2 kts | 185° |
| 2026-05-08 02:47 | 49.19636 | -123.18389 | 26 ft | 3 kts | 184° |
| 2026-05-08 02:48 | 49.19656 | -123.18387 | 26 ft | 3 kts | 188° |
| 2026-05-08 02:48 | 49.19675 | -123.18381 | 29 ft | 3 kts | 204° |
| 2026-05-08 02:48 | 49.19689 | -123.18368 | 27 ft | 3 kts | 255° |
| 2026-05-08 02:48 | 49.19690 | -123.18360 | 28 ft | 0 kts | 280° |
| 2026-05-08 02:51 | 49.19697 | -123.18425 | 26 ft | 10 kts | 279° |
| 2026-05-08 02:51 | 49.19709 | -123.18530 | 25 ft | 10 kts | 279° |
| 2026-05-08 02:51 | 49.19718 | -123.18625 | 25 ft | 8 kts | 267° |
| 2026-05-08 02:52 | 49.19683 | -123.18678 | 28 ft | 7 kts | 201° |
| 2026-05-08 02:52 | 49.19637 | -123.18693 | 25 ft | 7 kts | 189° |
| 2026-05-08 02:52 | 49.19594 | -123.18703 | 25 ft | 6 kts | 189° |
| 2026-05-08 02:52 | 49.19540 | -123.18717 | 25 ft | 11 kts | 189° |
| 2026-05-08 02:53 | 49.19457 | -123.18740 | 26 ft | 13 kts | 189° |
| 2026-05-08 02:53 | 49.19366 | -123.18696 | 27 ft | 15 kts | 180° |
| 2026-05-08 02:53 | 49.19254 | -123.18710 | 26 ft | 17 kts | 189° |
| 2026-05-08 02:53 | 49.19137 | -123.18666 | 25 ft | 19 kts | 144° |
| 2026-05-08 02:54 | 49.19065 | -123.18579 | 26 ft | 21 kts | 141° |
| 2026-05-08 02:54 | 49.18963 | -123.18445 | 26 ft | 16 kts | 125° |
| 2026-05-08 02:54 | 49.18937 | -123.18280 | 25 ft | 16 kts | 99° |
| 2026-05-08 02:54 | 49.18917 | -123.18114 | 25 ft | 14 kts | 100° |
| 2026-05-08 02:55 | 49.18900 | -123.17972 | 25 ft | 13 kts | 100° |
| 2026-05-08 02:55 | 49.18872 | -123.17709 | 25 ft | 16 kts | 98° |
| 2026-05-08 02:55 | 49.18849 | -123.17496 | 25 ft | 24 kts | 99° |
| 2026-05-08 02:56 | 49.18815 | -123.17209 | 27 ft | 29 kts | 101° |
| 2026-05-08 02:56 | 49.18783 | -123.16939 | 25 ft | 23 kts | 99° |
| 2026-05-08 02:56 | 49.18759 | -123.16719 | 27 ft | 20 kts | 99° |
| 2026-05-08 02:56 | 49.18740 | -123.16549 | 25 ft | 13 kts | 100° |
| 2026-05-08 02:57 | 49.18725 | -123.16423 | 25 ft | 12 kts | 100° |
| 2026-05-08 02:57 | 49.18704 | -123.16312 | 25 ft | 10 kts | 119° |
| 2026-05-08 02:57 | 49.18659 | -123.16236 | 26 ft | 9 kts | 133° |
| 2026-05-08 02:57 | 49.18636 | -123.16156 | 25 ft | 8 kts | 101° |
| 2026-05-08 02:58 | 49.18624 | -123.16080 | 25 ft | 7 kts | 116° |
| 2026-05-08 02:58 | 49.18589 | -123.16041 | 26 ft | 6 kts | 165° |
| 2026-05-08 02:58 | 49.18553 | -123.16043 | 26 ft | 5 kts | 188° |
| 2026-05-08 02:58 | 49.18515 | -123.16053 | 25 ft | 8 kts | 188° |
| 2026-05-08 02:59 | 49.18477 | -123.16080 | 26 ft | 4 kts | 241° |
| 2026-05-08 02:59 | 49.18477 | -123.16100 | 26 ft | 0 kts | 273° |
| 2026-05-08 02:59 | 49.18500 | -123.16322 | 25 ft | 61 kts | 281° |
| 2026-05-08 02:59 | 49.18616 | -123.17339 | 25 ft | 130 kts | 280° |
| 2026-05-08 03:00 | 49.18802 | -123.18967 | 115 ft | 173 kts | 278° |
| 2026-05-08 03:00 | 49.19029 | -123.20795 | 821 ft | 175 kts | 275° |
| 2026-05-08 03:00 | 49.18974 | -123.22627 | 1651 ft | 174 kts | 260° |
| 2026-05-08 03:00 | 49.18829 | -123.24503 | 2318 ft | 184 kts | 261° |
| 2026-05-08 03:01 | 49.18634 | -123.26550 | 2735 ft | 207 kts | 261° |
| 2026-05-08 03:01 | 49.18398 | -123.28853 | 3190 ft | 231 kts | 261° |
| 2026-05-08 03:01 | 49.17919 | -123.31310 | 3690 ft | 255 kts | 238° |
| 2026-05-08 03:01 | 49.16622 | -123.33212 | 4470 ft | 266 kts | 206° |
| 2026-05-08 03:02 | 49.14815 | -123.33788 | 5402 ft | 271 kts | 173° |
| 2026-05-08 03:02 | 49.13016 | -123.32966 | 6446 ft | 271 kts | 158° |
| 2026-05-08 03:02 | 49.11265 | -123.31880 | 7438 ft | 272 kts | 158° |
| 2026-05-08 03:02 | 49.09502 | -123.30764 | 8360 ft | 277 kts | 158° |
| 2026-05-08 03:03 | 49.07712 | -123.29628 | 9308 ft | 280 kts | 158° |
| 2026-05-08 03:03 | 49.05898 | -123.28486 | 10194 ft | 286 kts | 159° |
| 2026-05-08 03:03 | 49.03982 | -123.27290 | 10569 ft | 309 kts | 159° |
| 2026-05-08 03:03 | 49.01914 | -123.26006 | 10859 ft | 333 kts | 159° |
| 2026-05-08 03:04 | 48.99695 | -123.24630 | 11204 ft | 352 kts | 159° |
| 2026-05-08 03:04 | 48.97397 | -123.23206 | 11874 ft | 360 kts | 159° |
| 2026-05-08 03:04 | 48.95058 | -123.21759 | 12621 ft | 365 kts | 159° |
| 2026-05-08 03:04 | 48.92695 | -123.20296 | 13377 ft | 369 kts | 159° |
| 2026-05-08 03:05 | 48.90301 | -123.18815 | 14104 ft | 374 kts | 159° |
| 2026-05-08 03:05 | 48.87878 | -123.17315 | 14768 ft | 378 kts | 159° |
| 2026-05-08 03:05 | 48.86261 | -123.16316 | 15214 ft | 380 kts | 159° |
| 2026-05-08 03:05 | 48.82962 | -123.14284 | 16120 ft | 385 kts | 159° |
| 2026-05-08 03:06 | 48.80469 | -123.12753 | 16800 ft | 388 kts | 160° |
| 2026-05-08 03:06 | 48.77956 | -123.11214 | 17455 ft | 392 kts | 160° |
| 2026-05-08 03:06 | 48.75417 | -123.09655 | 18121 ft | 395 kts | 160° |
| 2026-05-08 03:06 | 48.72856 | -123.08083 | 18729 ft | 399 kts | 160° |
| 2026-05-08 03:07 | 48.70304 | -123.06519 | 19266 ft | 403 kts | 160° |
| 2026-05-08 03:07 | 48.67690 | -123.04920 | 19802 ft | 408 kts | 160° |
| 2026-05-08 03:07 | 48.65042 | -123.03303 | 20320 ft | 413 kts | 160° |
| 2026-05-08 03:07 | 48.62363 | -123.01667 | 20851 ft | 417 kts | 160° |
| 2026-05-08 03:08 | 48.59654 | -123.00015 | 21334 ft | 422 kts | 161° |
| 2026-05-08 03:08 | 48.56915 | -122.98346 | 21816 ft | 427 kts | 161° |
| 2026-05-08 03:08 | 48.54144 | -122.96658 | 22298 ft | 431 kts | 161° |
| 2026-05-08 03:08 | 48.51354 | -122.94962 | 22773 ft | 435 kts | 161° |
| 2026-05-08 03:09 | 48.48536 | -122.93256 | 23239 ft | 439 kts | 161° |
| 2026-05-08 03:09 | 48.45691 | -122.91538 | 23680 ft | 442 kts | 161° |
| 2026-05-08 03:09 | 48.42820 | -122.89805 | 24042 ft | 446 kts | 161° |
| 2026-05-08 03:09 | 48.39933 | -122.88061 | 24412 ft | 449 kts | 161° |
| 2026-05-08 03:10 | 48.37027 | -122.86303 | 24774 ft | 452 kts | 161° |
| 2026-05-08 03:10 | 48.34102 | -122.84534 | 25121 ft | 455 kts | 161° |
| 2026-05-08 03:10 | 48.31152 | -122.82757 | 25402 ft | 458 kts | 161° |
| 2026-05-08 03:10 | 48.28187 | -122.80971 | 25826 ft | 460 kts | 161° |
| 2026-05-08 03:11 | 48.25212 | -122.79181 | 26169 ft | 463 kts | 161° |
| 2026-05-08 03:11 | 48.22210 | -122.77379 | 26504 ft | 466 kts | 161° |
| 2026-05-08 03:11 | 48.19191 | -122.75571 | 26829 ft | 468 kts | 161° |
| 2026-05-08 03:11 | 48.16159 | -122.73758 | 27137 ft | 471 kts | 162° |
| 2026-05-08 03:12 | 48.13105 | -122.71931 | 27428 ft | 473 kts | 162° |
| 2026-05-08 03:12 | 48.10037 | -122.70098 | 27720 ft | 476 kts | 162° |
| 2026-05-08 03:12 | 48.06956 | -122.68260 | 28006 ft | 478 kts | 162° |
| 2026-05-08 03:12 | 48.03854 | -122.66413 | 28265 ft | 481 kts | 162° |
| 2026-05-08 03:13 | 48.00745 | -122.64564 | 28545 ft | 483 kts | 162° |
| 2026-05-08 03:13 | 47.97618 | -122.62708 | 28813 ft | 485 kts | 162° |
| 2026-05-08 03:13 | 47.94474 | -122.60844 | 29022 ft | 487 kts | 162° |
| 2026-05-08 03:14 | 47.88216 | -122.57141 | 29079 ft | 487 kts | 162° |
| 2026-05-08 03:14 | 47.81931 | -122.53431 | 29116 ft | 485 kts | 162° |
| 2026-05-08 03:15 | 47.75658 | -122.49726 | 29114 ft | 485 kts | 162° |
| 2026-05-08 03:15 | 47.69376 | -122.46028 | 29110 ft | 485 kts | 162° |
| 2026-05-08 03:16 | 47.63087 | -122.42350 | 29104 ft | 485 kts | 162° |
| 2026-05-08 03:16 | 47.56807 | -122.38687 | 29100 ft | 485 kts | 162° |
| 2026-05-08 03:17 | 47.50515 | -122.35020 | 29099 ft | 485 kts | 162° |
| 2026-05-08 03:17 | 47.44190 | -122.31753 | 29110 ft | 481 kts | 171° |
| 2026-05-08 03:18 | 47.37598 | -122.30942 | 29109 ft | 474 kts | 184° |
| 2026-05-08 03:18 | 47.31002 | -122.30965 | 29112 ft | 474 kts | 184° |
| 2026-05-08 03:19 | 47.24406 | -122.30969 | 29098 ft | 474 kts | 184° |
| 2026-05-08 03:19 | 47.17802 | -122.30963 | 29094 ft | 474 kts | 184° |
| 2026-05-08 03:20 | 47.11207 | -122.30955 | 29093 ft | 474 kts | 184° |
| 2026-05-08 03:20 | 47.04610 | -122.30961 | 29102 ft | 474 kts | 184° |
| 2026-05-08 03:21 | 46.98004 | -122.30964 | 29110 ft | 475 kts | 184° |
| 2026-05-08 03:21 | 46.91396 | -122.30959 | 29111 ft | 475 kts | 184° |
| 2026-05-08 03:22 | 46.84803 | -122.30946 | 29109 ft | 473 kts | 184° |
| 2026-05-08 03:22 | 46.81527 | -122.30945 | 28321 ft | 470 kts | 184° |
| 2026-05-08 03:22 | 46.78249 | -122.30948 | 27035 ft | 473 kts | 184° |
| 2026-05-08 03:22 | 46.74947 | -122.30951 | 25800 ft | 475 kts | 184° |
| 2026-05-08 03:23 | 46.71635 | -122.30955 | 24619 ft | 476 kts | 184° |
| 2026-05-08 03:23 | 46.68312 | -122.30957 | 23437 ft | 476 kts | 184° |
| 2026-05-08 03:23 | 46.65008 | -122.30956 | 22274 ft | 473 kts | 184° |
| 2026-05-08 03:23 | 46.61749 | -122.30952 | 21479 ft | 464 kts | 183° |
| 2026-05-08 03:24 | 46.58542 | -122.30948 | 20668 ft | 457 kts | 183° |
| 2026-05-08 03:24 | 46.55424 | -122.30943 | 19880 ft | 451 kts | 183° |
| 2026-05-08 03:24 | 46.52262 | -122.30942 | 19118 ft | 446 kts | 183° |
| 2026-05-08 03:24 | 46.49216 | -122.30944 | 18400 ft | 442 kts | 182° |
| 2026-05-08 03:25 | 46.46156 | -122.30944 | 17577 ft | 437 kts | 182° |
| 2026-05-08 03:25 | 46.43131 | -122.30944 | 16898 ft | 431 kts | 182° |
| 2026-05-08 03:25 | 46.40160 | -122.30945 | 16269 ft | 424 kts | 182° |
| 2026-05-08 03:25 | 46.37225 | -122.30946 | 15649 ft | 418 kts | 182° |
| 2026-05-08 03:26 | 46.34335 | -122.30950 | 15048 ft | 413 kts | 182° |
| 2026-05-08 03:26 | 46.31468 | -122.30956 | 14442 ft | 409 kts | 182° |
| 2026-05-08 03:26 | 46.28630 | -122.30955 | 13819 ft | 406 kts | 183° |
| 2026-05-08 03:26 | 46.25838 | -122.31291 | 13156 ft | 399 kts | 193° |
| 2026-05-08 03:27 | 46.23228 | -122.32350 | 12924 ft | 380 kts | 203° |
| 2026-05-08 03:27 | 46.20825 | -122.33700 | 12791 ft | 363 kts | 204° |
| 2026-05-08 03:27 | 46.18520 | -122.34980 | 12658 ft | 347 kts | 204° |
| 2026-05-08 03:27 | 46.16312 | -122.36199 | 12528 ft | 333 kts | 204° |
| 2026-05-08 03:28 | 46.14192 | -122.37370 | 12392 ft | 320 kts | 204° |
| 2026-05-08 03:28 | 46.12140 | -122.38507 | 12172 ft | 312 kts | 204° |
| 2026-05-08 03:28 | 46.10118 | -122.39626 | 12107 ft | 311 kts | 204° |
| 2026-05-08 03:28 | 46.08101 | -122.40741 | 12018 ft | 309 kts | 204° |
| 2026-05-08 03:29 | 46.06121 | -122.41822 | 11764 ft | 302 kts | 204° |
| 2026-05-08 03:29 | 46.04821 | -122.42525 | 11534 ft | 301 kts | 204° |
| 2026-05-08 03:29 | 46.02205 | -122.43932 | 11056 ft | 299 kts | 203° |
| 2026-05-08 03:29 | 46.00266 | -122.44973 | 10701 ft | 297 kts | 203° |
| 2026-05-08 03:30 | 45.96427 | -122.47033 | 9975 ft | 293 kts | 203° |
| 2026-05-08 03:30 | 45.92528 | -122.48484 | 8879 ft | 290 kts | 184° |
| 2026-05-08 03:31 | 45.88579 | -122.47713 | 7477 ft | 286 kts | 172° |
| 2026-05-08 03:31 | 45.84726 | -122.46736 | 6386 ft | 269 kts | 172° |
| 2026-05-08 03:32 | 45.82957 | -122.46290 | 6217 ft | 247 kts | 173° |
| 2026-05-08 03:32 | 45.81321 | -122.45882 | 6107 ft | 234 kts | 173° |
| 2026-05-08 03:32 | 45.79721 | -122.45487 | 6019 ft | 232 kts | 173° |
| 2026-05-08 03:32 | 45.78128 | -122.45096 | 6022 ft | 232 kts | 173° |
| 2026-05-08 03:33 | 45.76539 | -122.44703 | 6022 ft | 232 kts | 173° |
| 2026-05-08 03:33 | 45.74949 | -122.44310 | 6023 ft | 232 kts | 173° |
| 2026-05-08 03:33 | 45.73361 | -122.43917 | 6026 ft | 232 kts | 173° |
| 2026-05-08 03:33 | 45.71771 | -122.43524 | 6024 ft | 232 kts | 173° |
| 2026-05-08 03:34 | 45.70181 | -122.43133 | 6015 ft | 232 kts | 173° |
| 2026-05-08 03:34 | 45.68590 | -122.42739 | 6011 ft | 232 kts | 173° |
| 2026-05-08 03:34 | 45.66999 | -122.42347 | 6013 ft | 232 kts | 173° |
| 2026-05-08 03:34 | 45.65405 | -122.41955 | 6012 ft | 232 kts | 173° |
| 2026-05-08 03:35 | 45.63815 | -122.41565 | 6011 ft | 232 kts | 173° |
| 2026-05-08 03:35 | 45.62222 | -122.41173 | 6009 ft | 232 kts | 173° |
| 2026-05-08 03:35 | 45.60980 | -122.40863 | 6002 ft | 227 kts | 172° |
| 2026-05-08 03:35 | 45.59534 | -122.39913 | 5670 ft | 236 kts | 137° |
| 2026-05-08 03:36 | 45.58792 | -122.37835 | 5286 ft | 240 kts | 100° |
| 2026-05-08 03:36 | 45.58668 | -122.36279 | 5163 ft | 235 kts | 96° |
| 2026-05-08 03:36 | 45.58168 | -122.33353 | 5086 ft | 228 kts | 114° |
| 2026-05-08 03:36 | 45.57292 | -122.31476 | 4976 ft | 226 kts | 140° |
| 2026-05-08 03:37 | 45.55957 | -122.30394 | 4488 ft | 227 kts | 169° |
| 2026-05-08 03:37 | 45.54398 | -122.30373 | 4104 ft | 224 kts | 194° |
| 2026-05-08 03:37 | 45.52928 | -122.31158 | 3642 ft | 226 kts | 212° |
| 2026-05-08 03:37 | 45.51752 | -122.32539 | 3532 ft | 213 kts | 230° |
| 2026-05-08 03:38 | 45.50955 | -122.34270 | 3438 ft | 208 kts | 247° |
| 2026-05-08 03:38 | 45.50542 | -122.36236 | 3297 ft | 207 kts | 263° |
| 2026-05-08 03:38 | 45.50543 | -122.38285 | 3098 ft | 207 kts | 279° |
| 2026-05-08 03:38 | 45.50957 | -122.40239 | 2854 ft | 206 kts | 296° |
| 2026-05-08 03:39 | 45.51647 | -122.42027 | 2597 ft | 206 kts | 299° |
| 2026-05-08 03:39 | 45.52345 | -122.43803 | 2318 ft | 205 kts | 299° |
| 2026-05-08 03:39 | 45.53040 | -122.45574 | 2038 ft | 204 kts | 299° |
| 2026-05-08 03:39 | 45.53723 | -122.47318 | 1763 ft | 197 kts | 299° |
| 2026-05-08 03:40 | 45.54368 | -122.48963 | 1531 ft | 183 kts | 299° |
| 2026-05-08 03:40 | 45.54963 | -122.50484 | 1272 ft | 167 kts | 299° |
| 2026-05-08 03:40 | 45.55504 | -122.51866 | 1097 ft | 150 kts | 299° |
| 2026-05-08 03:40 | 45.55995 | -122.53119 | 887 ft | 140 kts | 299° |
| 2026-05-08 03:41 | 45.56452 | -122.54311 | 713 ft | 134 kts | 300° |
| 2026-05-08 03:41 | 45.56905 | -122.55458 | 516 ft | 131 kts | 300° |
| 2026-05-08 03:41 | 45.57348 | -122.56591 | 367 ft | 130 kts | 298° |
| 2026-05-08 03:41 | 45.57786 | -122.57718 | 198 ft | 130 kts | 299° |
| 2026-05-08 03:42 | 45.58224 | -122.58837 | 39 ft | 125 kts | 300° |
| 2026-05-08 03:42 | 45.58581 | -122.59746 | 37 ft | 81 kts | 298° |
| 2026-05-08 03:42 | 45.58790 | -122.60283 | 32 ft | 52 kts | 299° |
| 2026-05-08 03:42 | 45.58922 | -122.60465 | 31 ft | 15 kts | 0° |
| 2026-05-08 03:43 | 45.58967 | -122.60431 | 33 ft | 0 kts | 42° |
| 2026-05-08 03:44 | 45.58988 | -122.60403 | 33 ft | 4 kts | 43° |
| 2026-05-08 03:44 | 45.59005 | -122.60378 | 33 ft | 6 kts | 45° |
| 2026-05-08 03:45 | 45.59048 | -122.60315 | 33 ft | 10 kts | 46° |
| 2026-05-08 03:45 | 45.59093 | -122.60251 | 32 ft | 8 kts | 45° |
| 2026-05-08 03:45 | 45.59131 | -122.60193 | 32 ft | 8 kts | 58° |
| 2026-05-08 03:45 | 45.59139 | -122.60116 | 31 ft | 8 kts | 88° |
| 2026-05-08 03:46 | 45.59139 | -122.60031 | 30 ft | 9 kts | 89° |
| 2026-05-08 03:46 | 45.59135 | -122.59939 | 29 ft | 9 kts | 101° |
| 2026-05-08 03:46 | 45.59114 | -122.59869 | 30 ft | 7 kts | 117° |
| 2026-05-08 03:46 | 45.59093 | -122.59817 | 30 ft | 5 kts | 120° |
| 2026-05-08 03:47 | 45.59077 | -122.59776 | 30 ft | 4 kts | 120° |
| 2026-05-08 03:47 | 45.59063 | -122.59741 | 30 ft | 4 kts | 120° |
| 2026-05-08 03:47 | 45.59048 | -122.59701 | 30 ft | 5 kts | 119° |
| 2026-05-08 03:47 | 45.59033 | -122.59662 | 30 ft | 4 kts | 118° |
| 2026-05-08 03:48 | 45.59017 | -122.59649 | 30 ft | 1 kts | 182° |
| 2026-05-08 03:48 | 45.59010 | -122.59658 | 31 ft | 3 kts | 213° |
| 2026-05-08 03:48 | 45.58999 | -122.59666 | 31 ft | 1 kts | 208° |
| 2026-05-08 03:48 | 45.58998 | -122.59667 | 31 ft | 1 kts | 208° |
| 2026-05-08 03:49 | 45.58992 | -122.59672 | 31 ft | 0 kts | 209° |
| 2026-05-08 03:49 | 45.58979 | -122.59682 | 30 ft | 2 kts | 209° |
| 2026-05-08 03:49 | 45.58972 | -122.59688 | 32 ft | 4 kts | 209° |
| 2026-05-08 03:49 | 45.58966 | -122.59693 | 30 ft | 1 kts | 209° |
| 2026-05-08 03:50 | 45.58962 | -122.59696 | 32 ft | 0 kts | 209° |
| 2026-05-08 03:50 | 45.58961 | -122.59697 | 32 ft | 0 kts | 209° |